Time;durP1;ratioP1;P1;durP2;ratioP2;P2;SDS_P1;SDS_P2;PMS_P1;PMS_P2;Temp;Humidity;BMP_temperature;BMP_pressure;BME280_temperature;BME280_humidity;BME280_pressure;Samples;Min_cycle;Max_cycle;Signal;HPM_P1;HPM_P2
2021/09/21 00:00:46;;;;;;;43.90;40.70;;;;;;;14.55;100.00;102937.59;1941557;74;32993;-75
2021/09/21 00:06:12;;;;;;;44.90;41.50;;;;;;;14.92;100.00;102940.55;1941477;74;33572;-74
2021/09/21 00:11:36;;;;;;;43.67;40.33;;;;;;;14.58;100.00;102939.89;1941481;74;33056;-74
2021/09/21 00:17:02;;;;;;;44.40;41.00;;;;;;;14.85;100.00;102947.45;1941452;74;33519;-74
2021/09/21 00:22:27;;;;;;;45.77;42.40;;;;;;;14.67;100.00;102936.62;1941459;74;32997;-74
2021/09/21 00:27:51;;;;;;;46.00;42.70;;;;;;;14.55;100.00;102938.99;1941663;74;32996;-74
2021/09/21 00:33:18;;;;;;;45.63;42.30;;;;;;;14.53;100.00;102950.16;1941286;74;33137;-74
2021/09/21 00:38:44;;;;;;;44.67;41.23;;;;;;;14.23;100.00;102945.53;1941267;74;33073;-74
2021/09/21 00:44:10;;;;;;;45.40;41.97;;;;;;;14.16;100.00;102950.48;1941268;74;33001;-74
2021/09/21 00:49:35;;;;;;;44.63;41.43;;;;;;;14.08;100.00;102965.72;1941462;74;33108;-74
2021/09/21 00:55:01;;;;;;;46.20;42.63;;;;;;;13.95;100.00;102968.87;1941509;74;33489;-74
2021/09/21 01:00:28;;;;;;;45.10;41.60;;;;;;;13.87;100.00;102970.71;1941318;74;33050;-74
2021/09/21 01:05:52;;;;;;;44.67;41.30;;;;;;;13.90;100.00;102973.02;1941532;74;33587;-74
2021/09/21 01:11:43;;;;;;;44.67;41.07;;;;;;;14.03;100.00;102956.70;2010217;71;32820;-76
2021/09/21 01:17:08;;;;;;;45.67;42.27;;;;;;;14.06;100.00;102952.58;1941473;74;33520;-74
2021/09/21 01:22:32;;;;;;;45.83;42.43;;;;;;;14.09;100.00;102964.08;1941538;74;33492;-74
2021/09/21 01:27:57;;;;;;;47.50;44.10;;;;;;;14.01;100.00;102966.47;1941281;74;32992;-74
2021/09/21 01:33:22;;;;;;;46.63;43.20;;;;;;;13.91;100.00;102967.70;1941289;74;33057;-74
2021/09/21 01:38:47;;;;;;;45.37;41.97;;;;;;;13.98;100.00;102968.38;1941569;74;33569;-74
2021/09/21 01:44:12;;;;;;;47.20;43.80;;;;;;;14.12;100.00;102969.69;1941335;74;32972;-74
2021/09/21 01:49:43;;;;;;;46.77;43.37;;;;;;;13.99;100.00;102980.68;1941170;74;33058;-73
2021/09/21 01:55:11;;;;;;;45.60;42.20;;;;;;;13.89;100.00;102978.30;1941129;74;33048;-74
2021/09/21 02:00:34;;;;;;;47.47;43.87;;;;;;;13.94;100.00;102967.20;1941140;74;33068;-74
2021/09/21 02:05:58;;;;;;;47.57;44.17;;;;;;;13.79;100.00;102974.78;1941431;74;33520;-74
2021/09/21 02:11:29;;;;;;;46.77;43.43;;;;;;;14.03;100.00;102975.45;1941190;74;32989;-73
2021/09/21 02:16:54;;;;;;;47.67;44.20;;;;;;;13.91;100.00;102976.08;1941144;74;33097;-73
2021/09/21 02:22:19;;;;;;;49.33;45.83;;;;;;;13.78;100.00;102971.69;1941229;74;33046;-73
2021/09/21 02:27:43;;;;;;;47.70;44.20;;;;;;;13.65;100.00;102956.13;1941119;74;33101;-74
2021/09/21 02:33:09;;;;;;;51.23;47.50;;;;;;;13.54;100.00;102972.43;1941172;74;32996;-76
2021/09/21 02:38:33;;;;;;;48.43;44.67;;;;;;;13.66;100.00;102969.55;1941193;74;33094;-74
2021/09/21 02:44:16;;;;;;;48.03;44.33;;;;;;;13.78;100.00;102971.69;2009911;71;33301;-75
2021/09/21 02:49:40;;;;;;;48.83;45.17;;;;;;;13.65;100.00;102966.45;1941172;74;32993;-74
2021/09/21 02:55:06;;;;;;;47.50;43.70;;;;;;;13.71;100.00;102955.66;1941168;74;33468;-74
2021/09/21 03:00:31;;;;;;;47.37;43.77;;;;;;;13.69;100.00;102967.08;1941409;74;33539;-74
2021/09/21 03:06:01;;;;;;;48.47;44.90;;;;;;;13.57;100.00;102961.29;1941157;74;32972;-74
2021/09/21 03:11:37;;;;;;;48.20;44.50;;;;;;;13.56;100.00;102961.84;1941182;74;32981;-74
2021/09/21 03:28:28;;;;;;;49.53;45.80;;;;;;;13.10;100.00;102974.15;1941360;74;33561;-74
2021/09/21 03:33:52;;;;;;;47.97;44.57;;;;;;;12.96;100.00;102979.72;1941395;74;33108;-74
2021/09/21 03:39:17;;;;;;;46.47;42.87;;;;;;;12.83;100.00;102981.42;1941426;74;33142;-74
2021/09/21 03:44:43;;;;;;;48.23;44.57;;;;;;;12.69;100.00;102985.58;1941156;74;33060;-74
2021/09/21 03:50:11;;;;;;;49.67;45.87;;;;;;;12.85;100.00;102997.34;1941386;74;33000;-74
2021/09/21 03:55:35;;;;;;;47.73;44.27;;;;;;;13.19;100.00;102996.37;1941176;74;33047;-74
2021/09/21 04:00:59;;;;;;;48.50;44.90;;;;;;;13.22;100.00;103006.20;1915374;73;39764;-73
2021/09/21 04:06:24;;;;;;;47.20;43.60;;;;;;;13.15;100.00;103018.90;1941123;74;32996;-74
2021/09/21 04:11:55;;;;;;;47.13;43.53;;;;;;;13.13;100.00;103024.45;1941437;74;33513;-73
2021/09/21 04:17:20;;;;;;;46.20;42.80;;;;;;;13.09;100.00;103021.83;1941428;74;33481;-73
2021/09/21 04:22:45;;;;;;;45.47;42.17;;;;;;;12.76;100.00;103027.56;1941250;74;33047;-74
2021/09/21 04:28:09;;;;;;;46.67;43.27;;;;;;;12.99;100.00;103026.65;1941398;74;33058;-74
2021/09/21 04:33:37;;;;;;;45.87;42.37;;;;;;;12.96;100.00;103034.67;1941448;74;33544;-74
2021/09/21 04:39:02;;;;;;;45.53;42.20;;;;;;;13.00;100.00;103043.69;1941299;74;33499;-74
2021/09/21 04:44:25;;;;;;;46.00;42.70;;;;;;;12.93;100.00;103036.54;1941109;74;32994;-75
2021/09/21 04:49:49;;;;;;;44.33;41.13;;;;;;;12.31;100.00;103037.18;1941120;74;33042;-74
2021/09/21 04:55:14;;;;;;;46.03;42.53;;;;;;;12.29;100.00;103038.50;1941451;74;33000;-75
2021/09/21 05:00:38;;;;;;;45.70;42.50;;;;;;;12.38;100.00;103041.76;1941216;74;33137;-74
2021/09/21 05:06:03;;;;;;;45.77;42.47;;;;;;;12.16;100.00;103049.89;1972554;72;32953;-74
2021/09/21 05:11:27;;;;;;;45.67;42.17;;;;;;;12.05;100.00;103054.38;1941431;74;33509;-73
2021/09/21 05:16:51;;;;;;;45.03;41.50;;;;;;;12.46;100.00;103061.75;1941450;74;33508;-76
2021/09/21 05:22:23;;;;;;;45.63;42.30;;;;;;;12.36;100.00;103076.02;1941438;74;33496;-73
2021/09/21 05:27:49;;;;;;;43.70;40.40;;;;;;;12.30;100.00;103080.61;1941451;74;33498;-74
2021/09/21 05:33:14;;;;;;;41.97;38.83;;;;;;;11.97;100.00;103069.21;1941215;74;33057;-74
2021/09/21 05:38:38;;;;;;;41.60;38.50;;;;;;;11.88;100.00;103072.05;1941226;74;32985;-74
2021/09/21 05:44:05;;;;;;;43.43;40.30;;;;;;;11.79;100.00;103077.97;1941327;74;33019;-74
2021/09/21 05:49:29;;;;;;;43.47;40.37;;;;;;;11.86;100.00;103078.69;1941215;74;33000;-74
2021/09/21 05:54:54;;;;;;;44.37;41.27;;;;;;;11.92;100.00;103096.39;1941221;74;32993;-74
2021/09/21 06:00:20;;;;;;;43.70;40.60;;;;;;;11.86;100.00;103107.94;1941450;74;33075;-75
2021/09/21 06:05:44;;;;;;;44.83;41.53;;;;;;;11.79;100.00;103106.35;1941474;74;33545;-74
2021/09/21 06:11:08;;;;;;;45.30;42.03;;;;;;;11.91;100.00;103101.65;1941493;74;32966;-74
2021/09/21 06:16:33;;;;;;;44.17;41.17;;;;;;;12.00;100.00;103114.69;1941502;74;32998;-74
2021/09/21 06:21:58;;;;;;;45.33;42.23;;;;;;;11.90;100.00;103119.98;1941239;74;33076;-75
2021/09/21 06:27:22;;;;;;;45.47;42.37;;;;;;;11.90;100.00;103118.05;1941240;74;32990;-73
2021/09/21 06:32:46;;;;;;;45.60;42.50;;;;;;;12.01;100.00;103109.42;1941443;74;33148;-74
2021/09/21 06:38:11;;;;;;;45.10;41.90;;;;;;;12.09;100.00;103122.45;1941148;74;33055;-74
2021/09/21 06:43:36;;;;;;;44.53;41.17;;;;;;;12.18;100.00;103121.56;1941152;74;33032;-74
2021/09/21 06:49:00;;;;;;;46.27;42.97;;;;;;;12.27;100.00;103129.33;1941363;74;33483;-74
2021/09/21 06:54:25;;;;;;;45.27;42.07;;;;;;;12.23;100.00;103145.37;1941179;74;33540;-74
2021/09/21 06:59:49;;;;;;;46.10;42.60;;;;;;;12.37;100.00;103145.97;1941186;74;32995;-75
2021/09/21 07:05:14;;;;;;;45.80;42.60;;;;;;;12.28;100.00;103153.30;1941240;74;33060;-74
2021/09/21 07:10:40;;;;;;;46.20;42.63;;;;;;;12.36;100.00;103158.23;1941510;74;33557;-74
2021/09/21 07:16:05;;;;;;;43.97;40.77;;;;;;;12.53;100.00;103166.19;1941213;74;32995;-75
2021/09/21 07:21:29;;;;;;;43.90;40.57;;;;;;;12.58;100.00;103178.29;1941246;74;32991;-75
2021/09/21 07:26:57;;;;;;;41.93;38.87;;;;;;;12.65;100.00;103174.86;1941430;74;33051;-78
2021/09/21 07:32:21;;;;;;;44.90;41.63;;;;;;;12.99;100.00;103180.64;1941461;74;33051;-75
2021/09/21 07:37:46;;;;;;;42.70;39.50;;;;;;;13.07;100.00;103180.27;1941261;74;33104;-79
2021/09/21 07:43:17;;;;;;;42.70;39.40;;;;;;;13.33;100.00;103167.19;1941399;74;32990;-76
2021/09/21 07:48:41;;;;;;;41.30;38.17;;;;;;;13.67;100.00;103167.61;1941293;74;33157;-76
2021/09/21 07:54:12;;;;;;;42.03;38.77;;;;;;;13.87;100.00;103157.91;1941259;74;32982;-76
2021/09/21 07:59:38;;;;;;;42.43;39.33;;;;;;;14.19;100.00;103147.03;1941487;74;33555;-76
2021/09/21 08:05:11;;;;;;;39.80;36.90;;;;;;;14.64;100.00;103150.59;1941553;74;33063;-76
2021/09/21 08:10:36;;;;;;;41.57;38.03;;;;;;;14.73;100.00;103151.84;1941198;74;33063;-75
2021/09/21 08:16:01;;;;;;;39.27;36.37;;;;;;;14.72;100.00;103147.34;1941297;74;32975;-75
2021/09/21 08:21:31;;;;;;;39.63;36.73;;;;;;;15.02;100.00;103153.92;1941463;74;32976;-75
2021/09/21 08:26:56;;;;;;;39.90;37.10;;;;;;;15.44;100.00;103154.21;1941444;74;33552;-75
2021/09/21 08:32:21;;;;;;;39.20;36.43;;;;;;;15.49;100.00;103147.24;1941388;74;33005;-75
2021/09/21 08:37:45;;;;;;;38.00;35.47;;;;;;;15.87;100.00;103135.10;1941458;74;33580;-75
2021/09/21 08:43:10;;;;;;;39.03;36.10;;;;;;;15.67;100.00;103134.87;1941442;74;33643;-76
2021/09/21 08:48:34;;;;;;;39.47;36.67;;;;;;;16.03;100.00;103139.73;1941211;74;33048;-75
2021/09/21 08:53:59;;;;;;;40.27;37.23;;;;;;;15.96;100.00;103148.89;1941368;74;33551;-75
2021/09/21 08:59:31;;;;;;;40.57;37.67;;;;;;;16.07;100.00;103154.06;1941383;74;33575;-76
2021/09/21 09:05:04;;;;;;;39.57;36.67;;;;;;;16.23;100.00;103165.70;1941457;74;33557;-75
2021/09/21 09:10:32;;;;;;;37.73;34.80;;;;;;;16.28;100.00;103168.55;1941333;74;33104;-74
2021/09/21 09:15:57;;;;;;;42.40;39.33;;;;;;;16.52;100.00;103161.45;1941246;74;32981;-75
2021/09/21 09:21:23;;;;;;;42.73;39.93;;;;;;;16.59;100.00;103169.68;1941178;74;33454;-75
2021/09/21 09:27:08;;;;;;;42.20;39.43;;;;;;;16.78;100.00;103166.71;2010364;71;32844;-76
2021/09/21 09:32:54;;;;;;;44.53;41.90;;;;;;;16.84;100.00;103159.47;1941222;74;33025;-75
2021/09/21 09:38:22;;;;;;;41.73;39.30;;;;;;;17.16;100.00;103158.50;1941219;74;31077;-75
2021/09/21 09:43:48;;;;;;;38.03;35.33;;;;;;;17.24;100.00;103153.20;1941249;74;31042;-76
2021/09/21 09:49:13;;;;;;;35.83;33.63;;;;;;;17.14;100.00;103157.95;1941229;74;33056;-76
2021/09/21 09:54:44;;;;;;;34.93;32.63;;;;;;;17.46;100.00;103149.34;1941480;74;33620;-76
2021/09/21 10:00:11;;;;;;;31.83;29.83;;;;;;;17.31;100.00;103150.16;1941272;74;33097;-76
2021/09/21 10:05:39;;;;;;;30.60;28.80;;;;;;;17.38;100.00;103131.63;1941462;74;33442;-75
2021/09/21 10:17:26;;;;;;;31.00;29.20;;;;;;;17.79;100.00;103144.72;1941476;74;33489;-76
2021/09/21 10:22:57;;;;;;;31.70;29.70;;;;;;;17.82;100.00;103151.18;1941475;74;33134;-76
2021/09/21 10:28:25;;;;;;;32.20;30.40;;;;;;;18.04;100.00;103143.91;1941245;74;33058;-76
2021/09/21 10:33:56;;;;;;;31.57;29.57;;;;;;;18.05;100.00;103141.37;1941479;74;31155;-76
2021/09/21 10:39:24;;;;;;;33.20;31.23;;;;;;;18.04;100.00;103141.94;1941261;74;31113;-76
2021/09/21 10:44:58;;;;;;;31.30;29.17;;;;;;;18.17;100.00;103131.53;1941289;74;31155;-76
2021/09/21 10:50:25;;;;;;;30.07;28.17;;;;;;;18.33;100.00;103133.77;1941199;74;33106;-75
2021/09/21 10:56:07;;;;;;;31.20;29.13;;;;;;;18.49;100.00;103121.37;1941282;74;31010;-75
2021/09/21 11:01:32;;;;;;;30.30;28.40;;;;;;;18.25;100.00;103095.52;1941239;74;33071;-76
2021/09/21 11:06:58;;;;;;;31.67;29.63;;;;;;;18.45;100.00;103108.14;1941231;74;31027;-76
2021/09/21 11:12:25;;;;;;;32.17;30.17;;;;;;;18.65;100.00;103111.80;1941241;74;31128;-75
2021/09/21 11:18:01;;;;;;;30.20;28.50;;;;;;;18.69;100.00;103112.09;1941603;74;31674;-77
2021/09/21 11:23:28;;;;;;;32.23;30.33;;;;;;;18.64;100.00;103117.17;1941231;74;31030;-76
2021/09/21 11:28:54;;;;;;;33.50;31.53;;;;;;;18.85;100.00;103107.25;1941517;74;31084;-77
2021/09/21 11:34:19;;;;;;;30.37;28.57;;;;;;;18.94;100.00;103102.72;1941479;74;31566;-75
2021/09/21 11:39:43;;;;;;;27.77;26.27;;;;;;;19.15;100.00;103097.28;1941492;74;31076;-75
2021/09/21 11:45:17;;;;;;;27.90;26.33;;;;;;;19.05;100.00;103092.52;1941249;74;33475;-75
2021/09/21 11:50:44;;;;;;;28.03;26.40;;;;;;;19.24;100.00;103094.14;1941200;74;31078;-75
2021/09/21 11:56:11;;;;;;;30.00;27.87;;;;;;;19.15;100.00;103087.98;1941336;74;31004;-76
2021/09/21 12:01:35;;;;;;;30.73;28.83;;;;;;;19.62;100.00;103095.92;1941495;74;31722;-77
2021/09/21 12:07:01;;;;;;;32.27;30.27;;;;;;;19.92;100.00;103083.85;1941276;74;31098;-76
2021/09/21 12:12:26;;;;;;;33.23;31.33;;;;;;;19.96;100.00;103077.89;1941314;74;31075;-79
2021/09/21 12:17:56;;;;;;;27.37;25.80;;;;;;;19.86;100.00;103071.48;1941281;74;31023;-76
2021/09/21 12:23:25;;;;;;;29.17;27.30;;;;;;;19.93;100.00;103072.00;1941270;74;31134;-78
2021/09/21 12:28:53;;;;;;;28.20;26.60;;;;;;;20.12;100.00;103075.77;1941257;74;31196;-77
2021/09/21 12:34:19;;;;;;;25.77;24.27;;;;;;;20.15;100.00;103067.30;1941276;74;31024;-76
2021/09/21 12:39:43;;;;;;;26.67;25.27;;;;;;;19.92;100.00;103068.34;1941399;74;33591;-76
2021/09/21 12:45:11;;;;;;;25.53;24.23;;;;;;;20.11;100.00;103067.63;1941546;74;33620;-76
2021/09/21 12:50:41;;;;;;;24.27;22.90;;;;;;;19.89;100.00;103061.89;1941488;74;33547;-76
2021/09/21 12:56:14;;;;;;;24.47;23.23;;;;;;;19.63;100.00;103067.44;1941546;74;31544;-76
2021/09/21 13:01:40;;;;;;;28.50;26.90;;;;;;;19.74;100.00;103068.19;1941560;74;31165;-76
2021/09/21 13:07:05;;;;;;;26.03;24.63;;;;;;;19.90;100.00;103064.95;1941221;74;31011;-76
2021/09/21 13:12:31;;;;;;;24.13;22.83;;;;;;;20.08;100.00;103052.67;1941494;74;31036;-76
2021/09/21 13:17:59;;;;;;;25.53;24.07;;;;;;;20.38;100.00;103059.47;1941270;74;31145;-76
2021/09/21 13:23:26;;;;;;;22.90;21.80;;;;;;;20.43;100.00;103055.19;1941508;74;31650;-76
2021/09/21 13:28:52;;;;;;;22.67;21.47;;;;;;;20.59;100.00;103045.96;1941310;74;31599;-76
2021/09/21 13:34:17;;;;;;;22.70;21.40;;;;;;;20.71;100.00;103054.29;1941487;74;31548;-76
2021/09/21 13:39:44;;;;;;;24.90;23.50;;;;;;;20.60;100.00;103046.24;1941257;74;31109;-76
2021/09/21 13:45:13;;;;;;;23.83;22.43;;;;;;;20.44;100.00;103044.17;1941257;74;31039;-76
2021/09/21 13:50:37;;;;;;;23.20;21.80;;;;;;;20.40;100.00;103038.85;1941489;74;31674;-76
2021/09/21 13:56:08;;;;;;;22.87;21.67;;;;;;;20.36;100.00;103033.53;1941512;74;31543;-76
2021/09/21 14:01:33;;;;;;;23.43;22.00;;;;;;;20.57;100.00;103031.32;1941263;74;31158;-76
2021/09/21 14:06:58;;;;;;;23.77;22.37;;;;;;;20.40;100.00;103025.58;1941469;74;31595;-76
2021/09/21 14:12:23;;;;;;;23.53;22.33;;;;;;;20.52;100.00;103018.09;1941462;74;33516;-76
2021/09/21 14:17:52;;;;;;;23.03;21.73;;;;;;;20.52;100.00;103015.28;1941252;74;31121;-76
2021/09/21 14:29:01;;;;;;;24.60;23.20;;;;;;;20.59;100.00;103007.84;1941463;74;33618;-76
2021/09/21 14:34:26;;;;;;;21.97;20.87;;;;;;;20.69;100.00;103007.16;1941234;74;31205;-76
2021/09/21 14:39:50;;;;;;;21.70;20.60;;;;;;;20.74;100.00;103002.86;1941214;74;31041;-76
2021/09/21 14:45:17;;;;;;;21.40;20.30;;;;;;;20.87;100.00;103000.72;1941380;74;31708;-77
2021/09/21 14:51:02;;;;;;;21.93;20.77;;;;;;;20.79;100.00;102996.31;1941486;74;33580;-77
2021/09/21 14:56:27;;;;;;;22.87;21.67;;;;;;;20.97;100.00;102984.73;1941476;74;33573;-76
2021/09/21 15:01:51;;;;;;;21.90;20.80;;;;;;;20.98;100.00;102985.02;1941292;74;31052;-77
2021/09/21 15:07:19;;;;;;;21.47;20.40;;;;;;;21.06;100.00;102980.94;1941252;74;31073;-77
2021/09/21 15:12:44;;;;;;;20.93;19.83;;;;;;;21.00;100.00;102977.09;1941496;74;31081;-76
2021/09/21 15:18:10;;;;;;;20.30;19.30;;;;;;;20.89;100.00;102970.16;1941280;74;31216;-77
2021/09/21 15:23:34;;;;;;;18.13;17.23;;;;;;;20.96;100.00;102968.95;1941259;74;31186;-77
2021/09/21 15:29:00;;;;;;;25.27;24.00;;;;;;;21.03;100.00;102969.41;1941252;74;31165;-76
2021/09/21 15:34:30;;;;;;;20.80;19.80;;;;;;;21.06;100.00;102964.55;1941267;74;31058;-76
2021/09/21 15:39:57;;;;;;;22.47;21.37;;;;;;;21.06;100.00;102947.02;1941459;74;31134;-74
2021/09/21 15:45:23;;;;;;;21.20;20.20;;;;;;;20.94;100.00;102945.23;1941385;74;31061;-74
2021/09/21 15:50:50;;;;;;;22.60;21.50;;;;;;;20.82;100.00;102949.08;1941299;74;31105;-76
2021/09/21 15:56:16;;;;;;;20.90;19.80;;;;;;;20.75;100.00;102943.79;1941478;74;33479;-76
2021/09/21 16:01:40;;;;;;;19.73;18.73;;;;;;;20.74;100.00;102942.13;1941278;74;31056;-76
2021/09/21 16:07:06;;;;;;;16.63;15.90;;;;;;;20.71;100.00;102940.49;1941470;74;33569;-78
2021/09/21 16:12:30;;;;;;;18.27;17.47;;;;;;;20.81;100.00;102936.94;1941439;74;31067;-77
2021/09/21 16:17:56;;;;;;;18.83;17.93;;;;;;;20.81;100.00;102933.27;1941272;74;31119;-77
2021/09/21 16:23:22;;;;;;;18.43;17.53;;;;;;;20.77;100.00;102934.45;1941583;74;31153;-77
2021/09/21 16:28:50;;;;;;;17.87;17.07;;;;;;;20.85;100.00;102931.52;1941541;74;31191;-80
2021/09/21 16:34:16;;;;;;;22.50;20.53;;;;;;;20.85;100.00;102929.53;1941253;74;31119;-79
2021/09/21 16:39:42;;;;;;;21.57;20.03;;;;;;;21.19;100.00;102934.98;1978198;72;31534;-81
2021/09/21 16:45:10;;;;;;;21.00;19.67;;;;;;;20.95;100.00;102910.75;1941440;74;31553;-80
2021/09/21 16:50:39;;;;;;;24.10;22.53;;;;;;;20.73;100.00;102940.44;1941466;74;31559;-80
2021/09/21 16:56:07;;;;;;;21.27;20.27;;;;;;;20.79;100.00;102946.27;1941265;74;31165;-80
2021/09/21 17:01:37;;;;;;;24.00;22.60;;;;;;;20.58;100.00;102953.34;1923684;72;92534;-70
2021/09/21 17:07:21;;;;;;;24.80;23.60;;;;;;;20.70;100.00;102943.04;2009607;71;30954;-69
2021/09/21 17:13:06;;;;;;;26.30;24.83;;;;;;;20.30;100.00;102957.93;2015135;71;30917;-72
2021/09/21 17:18:31;;;;;;;28.37;26.67;;;;;;;20.12;100.00;102962.89;1941284;74;31124;-72
2021/09/21 17:24:16;;;;;;;26.83;25.43;;;;;;;20.53;100.00;102964.72;1999059;71;30815;-71
2021/09/21 17:30:00;;;;;;;33.03;31.13;;;;;;;19.95;100.00;102963.35;2010026;71;30852;-69
2021/09/21 17:35:25;;;;;;;33.20;31.30;;;;;;;19.60;100.00;102975.52;1941208;74;31488;-71
2021/09/21 17:40:50;;;;;;;40.73;38.43;;;;;;;18.98;100.00;102978.48;1941034;74;31135;-70
2021/09/21 17:46:21;;;;;;;41.60;39.07;;;;;;;18.60;100.00;102985.14;1941031;74;31124;-68
2021/09/21 17:52:06;;;;;;;41.10;38.60;;;;;;;18.53;100.00;102986.00;2009829;71;30889;-70
2021/09/21 17:57:31;;;;;;;40.70;38.13;;;;;;;18.37;100.00;102997.56;1941160;74;33506;-70
2021/09/21 18:02:58;;;;;;;42.43;39.83;;;;;;;18.11;100.00;103005.22;1941159;74;31538;-68
2021/09/21 18:08:24;;;;;;;41.37;38.63;;;;;;;18.10;100.00;103002.96;1940991;74;31038;-68
2021/09/21 18:13:48;;;;;;;40.37;37.87;;;;;;;17.88;100.00;103003.01;1941175;74;33600;-69
2021/09/21 18:16:54;;;;;;;40.37;37.60;;;;;;;17.88;100.00;103010.89;1905070;75;24175;-68
2021/09/21 18:20:04;;;;;;;41.90;39.30;;;;;;;17.80;100.00;103017.64;1867698;75;24263;-69
2021/09/21 18:23:10;;;;;;;40.83;38.23;;;;;;;17.60;100.00;103025.48;1904902;75;24173;-71
2021/09/21 18:28:36;;;;;;;41.23;38.37;;;;;;;17.47;100.00;103026.84;1941188;74;33726;-68
2021/09/21 18:34:00;;;;;;;43.30;40.40;;;;;;;16.92;100.00;103031.76;1941143;74;31542;-69
2021/09/21 18:39:31;;;;;;;42.70;40.00;;;;;;;16.60;100.00;103033.87;1941006;74;31114;-69
2021/09/21 18:44:56;;;;;;;41.07;38.23;;;;;;;16.54;100.00;103051.20;1941272;74;31051;-68
2021/09/21 18:50:21;;;;;;;41.73;39.03;;;;;;;16.75;100.00;103051.62;1941132;74;31093;-68
2021/09/21 18:55:46;;;;;;;40.73;38.13;;;;;;;16.70;100.00;103053.55;1941349;74;31606;-68
2021/09/21 19:01:12;;;;;;;42.00;39.30;;;;;;;16.85;100.00;103057.85;1940952;74;31035;-68
2021/09/21 19:06:37;;;;;;;41.23;38.33;;;;;;;16.49;100.00;103069.41;1940968;74;31120;-68
2021/09/21 19:12:02;;;;;;;42.77;39.83;;;;;;;16.24;100.00;103065.03;1940937;74;33102;-68
2021/09/21 19:17:26;;;;;;;43.73;40.83;;;;;;;15.97;100.00;103083.87;1940934;74;32995;-67
2021/09/21 19:22:56;;;;;;;42.97;39.97;;;;;;;16.08;100.00;103079.50;1941132;74;31166;-70
2021/09/21 19:28:22;;;;;;;43.87;41.07;;;;;;;16.18;100.00;103078.71;1941076;74;31083;-70
2021/09/21 19:33:47;;;;;;;44.20;41.13;;;;;;;16.16;100.00;103071.98;1940982;74;31152;-69
2021/09/21 19:39:14;;;;;;;43.73;40.83;;;;;;;16.22;100.00;103074.25;1940999;74;33126;-69
2021/09/21 19:44:39;;;;;;;43.30;40.50;;;;;;;16.35;100.00;103070.43;1940936;74;33050;-70
2021/09/21 19:50:07;;;;;;;42.93;40.03;;;;;;;16.10;100.00;103073.05;1941077;74;32982;-69
2021/09/21 19:55:31;;;;;;;43.90;40.70;;;;;;;16.14;100.00;103084.56;1940958;74;31069;-68
2021/09/21 20:00:56;;;;;;;42.90;39.70;;;;;;;16.06;100.00;103083.66;1941092;74;33191;-69
2021/09/21 20:06:21;;;;;;;43.17;40.07;;;;;;;15.94;100.00;103092.27;1941001;74;33098;-70
2021/09/21 20:11:46;;;;;;;43.57;40.37;;;;;;;16.04;100.00;103090.11;1941126;74;32991;-69
2021/09/21 20:17:11;;;;;;;46.93;43.83;;;;;;;15.95;100.00;103103.78;1940995;74;33137;-68
2021/09/21 20:22:36;;;;;;;44.23;41.03;;;;;;;15.85;100.00;103099.47;1941115;74;33609;-71
2021/09/21 20:28:02;;;;;;;45.03;41.87;;;;;;;15.48;100.00;103100.20;1941116;74;33062;-69
2021/09/21 20:33:37;;;;;;;43.83;40.73;;;;;;;15.62;100.00;103099.23;1940904;74;33024;-69
2021/09/21 20:38:55;;;;;;;42.73;39.80;;;;;;;15.62;100.00;103107.64;1940868;74;33110;-71
2021/09/21 20:44:20;;;;;;;43.53;40.43;;;;;;;15.40;100.00;103112.43;1940966;74;33067;-71
2021/09/21 20:49:45;;;;;;;42.70;39.63;;;;;;;15.30;100.00;103108.95;1940905;74;33072;-71
2021/09/21 20:55:13;;;;;;;43.33;40.37;;;;;;;15.27;100.00;103123.48;1940896;74;33199;-70
2021/09/21 21:00:38;;;;;;;43.30;40.30;;;;;;;15.24;100.00;103126.78;1941043;74;33526;-72
2021/09/21 21:06:04;;;;;;;42.87;39.90;;;;;;;15.30;100.00;103129.11;1940881;74;31056;-69
2021/09/21 21:11:29;;;;;;;44.20;41.13;;;;;;;15.36;100.00;103118.27;1941106;74;33530;-70
2021/09/21 21:16:53;;;;;;;42.80;39.60;;;;;;;15.23;100.00;103118.08;1941055;74;33465;-71
2021/09/21 21:22:18;;;;;;;42.00;39.13;;;;;;;15.16;100.00;103116.05;1940920;74;33163;-71
2021/09/21 21:27:43;;;;;;;43.30;40.40;;;;;;;15.02;100.00;103115.59;1941061;74;33478;-69
2021/09/21 21:33:09;;;;;;;43.57;40.53;;;;;;;14.94;100.00;103126.39;1941233;74;33504;-68
2021/09/21 21:38:40;;;;;;;42.53;39.63;;;;;;;15.06;100.00;103122.09;1940879;74;33124;-69
2021/09/21 21:44:06;;;;;;;41.60;38.77;;;;;;;14.77;100.00;103124.19;1941110;74;33045;-68
2021/09/21 21:49:31;;;;;;;43.73;40.73;;;;;;;14.81;100.00;103126.22;1940990;74;33009;-68
2021/09/21 21:55:00;;;;;;;42.80;39.90;;;;;;;14.59;100.00;103123.92;1941132;74;33595;-68
2021/09/21 22:04:03;;;;;;;42.00;39.20;;;;;;;14.84;100.00;103108.08;2016565;71;32978;-70
2021/09/21 22:09:47;;;;;;;41.17;38.37;;;;;;;14.59;100.00;103118.33;2009673;71;32819;-69
2021/09/21 22:15:13;;;;;;;43.60;40.43;;;;;;;14.57;100.00;103112.16;1940894;74;33089;-68
2021/09/21 22:20:58;;;;;;;41.87;39.03;;;;;;;14.49;100.00;103109.26;2009892;71;32845;-70
2021/09/21 22:26:22;;;;;;;42.53;39.47;;;;;;;14.49;100.00;103109.81;1941030;74;32979;-68
2021/09/21 22:31:46;;;;;;;41.90;38.80;;;;;;;14.36;100.00;103108.22;1941113;74;33495;-68
2021/09/21 22:37:33;;;;;;;41.27;38.47;;;;;;;14.20;100.00;103113.24;2013243;71;33323;-69
2021/09/21 22:42:58;;;;;;;41.83;39.00;;;;;;;14.03;100.00;103109.59;1940870;74;33062;-68
2021/09/21 22:48:42;;;;;;;42.73;39.90;;;;;;;14.10;100.00;103106.08;2004375;71;32834;-68
2021/09/21 22:54:26;;;;;;;43.00;39.73;;;;;;;13.89;100.00;103109.62;2018355;71;32938;-70
2021/09/21 23:00:14;;;;;;;43.80;40.63;;;;;;;13.74;100.00;103104.59;2016459;71;33073;-69
2021/09/21 23:05:39;;;;;;;40.70;38.00;;;;;;;13.32;100.00;103126.95;1940768;74;32976;-68
2021/09/21 23:11:23;;;;;;;41.20;38.53;;;;;;;13.06;100.00;103119.96;2009529;71;32932;-68
2021/09/21 23:16:48;;;;;;;38.83;36.33;;;;;;;12.79;100.00;103119.68;1940702;74;32978;-68
2021/09/21 23:22:14;;;;;;;41.63;39.03;;;;;;;12.87;100.00;103112.87;1940746;74;32977;-67
2021/09/21 23:27:39;;;;;;;41.93;39.10;;;;;;;13.03;100.00;103114.88;1940791;74;32984;-68
2021/09/21 23:33:08;;;;;;;42.77;39.97;;;;;;;13.30;100.00;103114.66;1940820;74;33127;-69
2021/09/21 23:38:36;;;;;;;41.40;38.70;;;;;;;13.00;100.00;103120.97;1940822;74;32995;-69
2021/09/21 23:44:01;;;;;;;44.03;41.03;;;;;;;13.07;100.00;103108.56;1940917;74;33138;-67
2021/09/21 23:49:29;;;;;;;42.23;39.43;;;;;;;13.10;100.00;103101.63;1940751;74;33050;-67
2021/09/21 23:54:54;;;;;;;40.77;38.07;;;;;;;13.30;100.00;103108.23;1941017;74;33510;-68
